sensor_id;sensor_type;location;lat;lon;timestamp;pressure;altitude;pressure_sealevel;temperature;humidity
62680;BME280;68213;40.528;44.712;2023-05-23T00:00:36;80666.03;;;8.95;67.92
62680;BME280;68213;40.528;44.712;2023-05-23T00:01:37;80668.28;;;8.88;68.24
62680;BME280;68213;40.528;44.712;2023-05-23T00:02:37;80665.75;;;8.91;68.17
62680;BME280;68213;40.528;44.712;2023-05-23T00:03:38;80672.38;;;8.92;68.33
62680;BME280;68213;40.528;44.712;2023-05-23T00:04:40;80649.88;;;8.77;68.20
62680;BME280;68213;40.528;44.712;2023-05-23T00:05:42;80668.88;;;8.99;68.10
62680;BME280;68213;40.528;44.712;2023-05-23T00:06:43;80674.03;;;8.97;68.45
62680;BME280;68213;40.528;44.712;2023-05-23T00:07:49;80659.28;;;8.92;68.54
62680;BME280;68213;40.528;44.712;2023-05-23T00:08:50;80663.28;;;8.93;68.33
62680;BME280;68213;40.528;44.712;2023-05-23T00:09:51;80660.06;;;8.94;68.49
62680;BME280;68213;40.528;44.712;2023-05-23T00:10:51;80654.28;;;8.96;68.34
62680;BME280;68213;40.528;44.712;2023-05-23T00:11:52;80657.16;;;9.00;68.51
62680;BME280;68213;40.528;44.712;2023-05-23T00:12:53;80659.91;;;9.02;68.38
62680;BME280;68213;40.528;44.712;2023-05-23T00:13:54;80665.38;;;9.06;68.20
62680;BME280;68213;40.528;44.712;2023-05-23T00:14:55;80662.19;;;9.08;67.75
62680;BME280;68213;40.528;44.712;2023-05-23T00:15:56;80669.13;;;9.03;69.12
62680;BME280;68213;40.528;44.712;2023-05-23T00:16:56;80675.13;;;8.94;69.48
62680;BME280;68213;40.528;44.712;2023-05-23T00:17:58;80683.88;;;8.86;70.54
62680;BME280;68213;40.528;44.712;2023-05-23T00:18:59;80684.56;;;8.87;70.05
62680;BME280;68213;40.528;44.712;2023-05-23T00:20:01;80687.38;;;8.79;70.47
62680;BME280;68213;40.528;44.712;2023-05-23T00:21:02;80698.19;;;8.73;70.70
62680;BME280;68213;40.528;44.712;2023-05-23T00:22:03;80714.53;;;8.84;69.93
62680;BME280;68213;40.528;44.712;2023-05-23T00:23:04;80718.97;;;8.81;70.01
62680;BME280;68213;40.528;44.712;2023-05-23T00:24:05;80730.19;;;8.94;68.86
62680;BME280;68213;40.528;44.712;2023-05-23T00:25:07;80747.34;;;9.07;68.64
62680;BME280;68213;40.528;44.712;2023-05-23T00:26:09;80765.66;;;9.16;68.78
62680;BME280;68213;40.528;44.712;2023-05-23T00:27:10;80779.00;;;9.20;69.33
62680;BME280;68213;40.528;44.712;2023-05-23T00:28:10;80787.56;;;9.21;70.85
62680;BME280;68213;40.528;44.712;2023-05-23T00:29:13;80782.88;;;9.19;72.67
62680;BME280;68213;40.528;44.712;2023-05-23T00:30:15;80785.00;;;9.11;74.09
62680;BME280;68213;40.528;44.712;2023-05-23T00:31:16;80783.50;;;9.08;74.77
62680;BME280;68213;40.528;44.712;2023-05-23T00:32:17;80758.16;;;9.01;74.61
62680;BME280;68213;40.528;44.712;2023-05-23T00:33:18;80767.41;;;9.02;75.83
62680;BME280;68213;40.528;44.712;2023-05-23T00:34:21;80748.34;;;9.01;76.24
62680;BME280;68213;40.528;44.712;2023-05-23T00:35:22;80762.41;;;9.06;76.20
62680;BME280;68213;40.528;44.712;2023-05-23T00:36:25;80761.28;;;9.09;76.70
62680;BME280;68213;40.528;44.712;2023-05-23T00:37:26;80765.97;;;9.11;76.46
62680;BME280;68213;40.528;44.712;2023-05-23T00:38:27;80770.09;;;9.14;76.68
62680;BME280;68213;40.528;44.712;2023-05-23T00:39:29;80783.75;;;9.12;77.69
62680;BME280;68213;40.528;44.712;2023-05-23T00:40:32;80791.75;;;9.14;78.78
62680;BME280;68213;40.528;44.712;2023-05-23T00:41:33;80775.94;;;9.02;80.03
62680;BME280;68213;40.528;44.712;2023-05-23T00:42:35;80782.00;;;9.05;80.23
62680;BME280;68213;40.528;44.712;2023-05-23T00:43:36;80792.31;;;9.13;81.14
62680;BME280;68213;40.528;44.712;2023-05-23T00:44:36;80790.00;;;9.07;81.68
62680;BME280;68213;40.528;44.712;2023-05-23T00:45:37;80790.69;;;9.08;82.10
62680;BME280;68213;40.528;44.712;2023-05-23T00:46:38;80781.56;;;9.09;82.11
62680;BME280;68213;40.528;44.712;2023-05-23T00:47:40;80773.00;;;9.08;82.06
62680;BME280;68213;40.528;44.712;2023-05-23T00:48:41;80771.63;;;9.07;82.75
62680;BME280;68213;40.528;44.712;2023-05-23T00:49:42;80767.28;;;9.00;81.34
62680;BME280;68213;40.528;44.712;2023-05-23T00:50:43;80774.03;;;9.03;81.79
62680;BME280;68213;40.528;44.712;2023-05-23T00:51:45;80763.72;;;8.95;80.15
62680;BME280;68213;40.528;44.712;2023-05-23T00:52:47;80764.41;;;8.96;81.92
62680;BME280;68213;40.528;44.712;2023-05-23T00:53:48;80768.28;;;8.95;82.57
62680;BME280;68213;40.528;44.712;2023-05-23T00:54:48;80769.38;;;8.92;82.66
62680;BME280;68213;40.528;44.712;2023-05-23T00:55:49;80759.66;;;8.82;83.44
62680;BME280;68213;40.528;44.712;2023-05-23T00:56:50;80753.03;;;8.60;85.17
62680;BME280;68213;40.528;44.712;2023-05-23T00:57:54;80736.09;;;8.51;85.20
62680;BME280;68213;40.528;44.712;2023-05-23T00:58:57;80754.78;;;8.67;85.06
62680;BME280;68213;40.528;44.712;2023-05-23T01:00:02;80735.56;;;8.52;84.56
62680;BME280;68213;40.528;44.712;2023-05-23T01:01:05;80743.91;;;8.61;84.52
62680;BME280;68213;40.528;44.712;2023-05-23T01:03:17;80745.19;;;8.50;85.97
62680;BME280;68213;40.528;44.712;2023-05-23T01:04:21;80749.09;;;8.39;86.24
62680;BME280;68213;40.528;44.712;2023-05-23T01:05:25;80748.47;;;8.29;86.66
62680;BME280;68213;40.528;44.712;2023-05-23T01:06:26;80750.22;;;8.36;86.62
62680;BME280;68213;40.528;44.712;2023-05-23T01:07:29;80754.75;;;8.35;86.01
62680;BME280;68213;40.528;44.712;2023-05-23T01:08:33;80756.72;;;8.35;85.77
62680;BME280;68213;40.528;44.712;2023-05-23T01:09:34;80750.38;;;8.28;85.51
62680;BME280;68213;40.528;44.712;2023-05-23T01:10:35;80742.72;;;8.20;85.24
62680;BME280;68213;40.528;44.712;2023-05-23T01:12:57;80758.38;;;8.30;84.99
62680;BME280;68213;40.528;44.712;2023-05-23T01:14:10;80762.63;;;8.35;84.16
62680;BME280;68213;40.528;44.712;2023-05-23T01:15:15;80760.69;;;8.36;84.13
62680;BME280;68213;40.528;44.712;2023-05-23T01:16:25;80755.19;;;8.32;84.27
62680;BME280;68213;40.528;44.712;2023-05-23T01:17:38;80759.63;;;8.29;84.27
62680;BME280;68213;40.528;44.712;2023-05-23T01:18:58;80751.94;;;8.21;84.24
62680;BME280;68213;40.528;44.712;2023-05-23T01:20:04;80743.44;;;8.11;84.05
62680;BME280;68213;40.528;44.712;2023-05-23T01:21:11;80754.56;;;8.21;84.66
62680;BME280;68213;40.528;44.712;2023-05-23T01:22:22;80751.94;;;8.21;84.82
62680;BME280;68213;40.528;44.712;2023-05-23T01:26:48;80748.19;;;8.24;84.79
62680;BME280;68213;40.528;44.712;2023-05-23T01:27:56;80742.72;;;8.20;84.99
62680;BME280;68213;40.528;44.712;2023-05-23T01:29:03;80740.53;;;8.17;85.31
62680;BME280;68213;40.528;44.712;2023-05-23T01:30:10;80732.53;;;8.15;84.99
62680;BME280;68213;40.528;44.712;2023-05-23T01:31:12;80737.09;;;8.14;84.71
62680;BME280;68213;40.528;44.712;2023-05-23T01:32:15;80739.44;;;8.10;84.78
62680;BME280;68213;40.528;44.712;2023-05-23T01:33:17;80736.81;;;8.10;84.66
62680;BME280;68213;40.528;44.712;2023-05-23T01:34:20;80739.44;;;8.10;84.97
62680;BME280;68213;40.528;44.712;2023-05-23T01:35:24;80737.25;;;8.06;84.94
62680;BME280;68213;40.528;44.712;2023-05-23T01:36:28;80742.53;;;7.97;86.11
62680;BME280;68213;40.528;44.712;2023-05-23T01:37:34;80742.66;;;7.99;86.11
62680;BME280;68213;40.528;44.712;2023-05-23T01:38:34;80737.41;;;7.99;85.82
62680;BME280;68213;40.528;44.712;2023-05-23T01:39:36;80737.41;;;7.99;85.63
62680;BME280;68213;40.528;44.712;2023-05-23T01:40:37;80737.16;;;7.94;85.83
62680;BME280;68213;40.528;44.712;2023-05-23T01:41:37;80737.84;;;7.95;85.85
62680;BME280;68213;40.528;44.712;2023-05-23T01:42:38;80737.56;;;7.91;85.95
62680;BME280;68213;40.528;44.712;2023-05-23T01:43:39;80742.00;;;7.88;86.07
62680;BME280;68213;40.528;44.712;2023-05-23T01:44:40;80741.19;;;7.86;86.48
62680;BME280;68213;40.528;44.712;2023-05-23T01:45:41;80747.53;;;7.73;85.47
62680;BME280;68213;40.528;44.712;2023-05-23T01:46:43;80732.84;;;7.58;85.95
62680;BME280;68213;40.528;44.712;2023-05-23T01:47:48;80748.53;;;7.68;86.96
62680;BME280;68213;40.528;44.712;2023-05-23T01:48:50;80739.06;;;7.62;87.08
62680;BME280;68213;40.528;44.712;2023-05-23T01:49:53;80737.09;;;7.63;86.97
62680;BME280;68213;40.528;44.712;2023-05-23T01:50:55;80737.66;;;7.61;87.25
62680;BME280;68213;40.528;44.712;2023-05-23T01:51:58;80737.00;;;7.51;88.02
62680;BME280;68213;40.528;44.712;2023-05-23T01:53:00;80731.22;;;7.43;87.87
62680;BME280;68213;40.528;44.712;2023-05-23T01:54:00;80736.59;;;7.45;88.41
62680;BME280;68213;40.528;44.712;2023-05-23T01:55:04;80738.53;;;7.35;87.51
62680;BME280;68213;40.528;44.712;2023-05-23T01:56:12;80743.75;;;7.35;87.84
62680;BME280;68213;40.528;44.712;2023-05-23T01:57:13;80728.25;;;7.17;88.39
62680;BME280;68213;40.528;44.712;2023-05-23T01:58:14;80743.38;;;7.28;88.62
62680;BME280;68213;40.528;44.712;2023-05-23T01:59:15;80745.69;;;7.34;88.34
62680;BME280;68213;40.528;44.712;2023-05-23T02:00:16;80738.41;;;7.33;88.33
62680;BME280;68213;40.528;44.712;2023-05-23T02:01:17;80738.25;;;7.40;88.28
62680;BME280;68213;40.528;44.712;2023-05-23T02:02:18;80741.84;;;7.45;88.11
62680;BME280;68213;40.528;44.712;2023-05-23T02:03:19;80741.97;;;7.47;87.88
62680;BME280;68213;40.528;44.712;2023-05-23T02:04:20;80739.34;;;7.47;87.66
62680;BME280;68213;40.528;44.712;2023-05-23T02:05:21;80742.38;;;7.43;87.85
62680;BME280;68213;40.528;44.712;2023-05-23T02:06:22;80736.34;;;7.41;88.07
62680;BME280;68213;40.528;44.712;2023-05-23T02:07:22;80734.97;;;7.40;88.34
62680;BME280;68213;40.528;44.712;2023-05-23T02:08:25;80736.91;;;7.29;87.37
62680;BME280;68213;40.528;44.712;2023-05-23T02:09:26;80734.84;;;7.28;87.08
62680;BME280;68213;40.528;44.712;2023-05-23T02:10:26;80732.91;;;7.28;87.43
62680;BME280;68213;40.528;44.712;2023-05-23T02:11:28;80737.16;;;7.34;88.59
62680;BME280;68213;40.528;44.712;2023-05-23T02:12:28;80733.88;;;7.23;88.60
62680;BME280;68213;40.528;44.712;2023-05-23T02:13:29;80736.78;;;7.18;88.08
62680;BME280;68213;40.528;44.712;2023-05-23T02:14:30;80725.91;;;7.21;88.51
62680;BME280;68213;40.528;44.712;2023-05-23T02:15:31;80726.28;;;7.27;88.61
62680;BME280;68213;40.528;44.712;2023-05-23T02:16:31;80726.84;;;7.26;88.16
62680;BME280;68213;40.528;44.712;2023-05-23T02:17:32;80719.56;;;7.24;87.43
62680;BME280;68213;40.528;44.712;2023-05-23T02:18:33;80715.56;;;7.33;87.32
62680;BME280;68213;40.528;44.712;2023-05-23T02:19:37;80719.38;;;7.42;86.58
62680;BME280;68213;40.528;44.712;2023-05-23T02:20:38;80721.72;;;7.47;86.59
62680;BME280;68213;40.528;44.712;2023-05-23T02:21:39;80722.13;;;7.54;86.13
62680;BME280;68213;40.528;44.712;2023-05-23T02:22:40;80720.59;;;7.60;85.31
62680;BME280;68213;40.528;44.712;2023-05-23T02:23:43;80722.22;;;7.66;85.42
62680;BME280;68213;40.528;44.712;2023-05-23T02:24:43;80723.31;;;7.72;84.68
62680;BME280;68213;40.528;44.712;2023-05-23T02:25:44;80721.38;;;7.73;84.68
62680;BME280;68213;40.528;44.712;2023-05-23T02:26:45;80728.13;;;7.76;84.37
62680;BME280;68213;40.528;44.712;2023-05-23T02:27:45;80727.13;;;7.81;83.76
62680;BME280;68213;40.528;44.712;2023-05-23T02:28:46;80720.09;;;7.84;84.06
62680;BME280;68213;40.528;44.712;2023-05-23T02:29:47;80722.28;;;7.87;84.18
62680;BME280;68213;40.528;44.712;2023-05-23T02:30:47;80717.06;;;7.87;83.57
62680;BME280;68213;40.528;44.712;2023-05-23T02:31:48;80724.00;;;7.73;84.18
62680;BME280;68213;40.528;44.712;2023-05-23T02:32:48;80728.03;;;7.64;84.10
62680;BME280;68213;40.528;44.712;2023-05-23T02:33:49;80728.31;;;7.58;84.59
62680;BME280;68213;40.528;44.712;2023-05-23T02:34:50;80709.47;;;7.50;85.50
62680;BME280;68213;40.528;44.712;2023-05-23T02:35:50;80722.94;;;7.66;85.49
62680;BME280;68213;40.528;44.712;2023-05-23T02:36:51;80726.59;;;7.73;84.74
62680;BME280;68213;40.528;44.712;2023-05-23T02:37:52;80731.72;;;7.71;85.61
62680;BME280;68213;40.528;44.712;2023-05-23T02:38:52;80731.06;;;7.60;86.25
62680;BME280;68213;40.528;44.712;2023-05-23T02:39:53;80738.63;;;7.66;86.54
62680;BME280;68213;40.528;44.712;2023-05-23T02:40:53;80737.38;;;7.57;86.86
62680;BME280;68213;40.528;44.712;2023-05-23T02:41:56;80730.94;;;7.49;86.86
62680;BME280;68213;40.528;44.712;2023-05-23T02:42:57;80739.59;;;7.61;86.92
62680;BME280;68213;40.528;44.712;2023-05-23T02:43:58;80732.44;;;7.61;87.26
62680;BME280;68213;40.528;44.712;2023-05-23T02:45:01;80744.13;;;7.60;87.23
62680;BME280;68213;40.528;44.712;2023-05-23T02:46:04;80740.00;;;7.57;87.70
62680;BME280;68213;40.528;44.712;2023-05-23T02:47:07;80743.84;;;7.56;87.66
62680;BME280;68213;40.528;44.712;2023-05-23T02:48:08;80739.19;;;7.55;88.28
62680;BME280;68213;40.528;44.712;2023-05-23T02:49:08;80736.97;;;7.61;88.22
62680;BME280;68213;40.528;44.712;2023-05-23T02:50:09;80739.31;;;7.67;88.04
62680;BME280;68213;40.528;44.712;2023-05-23T02:51:10;80736.13;;;7.68;87.62
62680;BME280;68213;40.528;44.712;2023-05-23T02:52:13;80746.16;;;7.72;87.11
62680;BME280;68213;40.528;44.712;2023-05-23T02:53:15;80745.22;;;7.67;87.36
62680;BME280;68213;40.528;44.712;2023-05-23T02:54:18;80745.50;;;7.71;87.55
62680;BME280;68213;40.528;44.712;2023-05-23T02:55:19;80741.06;;;7.74;87.50
62680;BME280;68213;40.528;44.712;2023-05-23T02:56:20;80738.19;;;7.70;88.05
62680;BME280;68213;40.528;44.712;2023-05-23T02:57:22;80730.75;;;7.76;88.32
62680;BME280;68213;40.528;44.712;2023-05-23T02:58:22;80714.94;;;7.64;88.06
62680;BME280;68213;40.528;44.712;2023-05-23T02:59:23;80722.47;;;7.80;87.58
62680;BME280;68213;40.528;44.712;2023-05-23T03:00:24;80710.91;;;7.73;87.33
62680;BME280;68213;40.528;44.712;2023-05-23T03:01:24;80722.03;;;7.83;87.61
62680;BME280;68213;40.528;44.712;2023-05-23T03:02:25;80725.06;;;7.89;87.42
62680;BME280;68213;40.528;44.712;2023-05-23T03:03:26;80731.09;;;7.92;86.81
62680;BME280;68213;40.528;44.712;2023-05-23T03:04:28;80722.25;;;7.97;87.33
62680;BME280;68213;40.528;44.712;2023-05-23T03:05:28;80727.06;;;8.01;87.23
62680;BME280;68213;40.528;44.712;2023-05-23T03:06:29;80723.59;;;8.08;86.96
62680;BME280;68213;40.528;44.712;2023-05-23T03:07:33;80722.63;;;8.13;86.79
62680;BME280;68213;40.528;44.712;2023-05-23T03:08:34;80715.34;;;8.02;86.40
62680;BME280;68213;40.528;44.712;2023-05-23T03:09:34;80734.47;;;8.14;86.91
62680;BME280;68213;40.528;44.712;2023-05-23T03:10:35;80730.72;;;8.17;86.77
62680;BME280;68213;40.528;44.712;2023-05-23T03:11:36;80727.81;;;8.23;86.80
62680;BME280;68213;40.528;44.712;2023-05-23T03:12:36;80730.25;;;8.31;86.52
62680;BME280;68213;40.528;44.712;2023-05-23T03:13:37;80740.72;;;8.31;86.12
62680;BME280;68213;40.528;44.712;2023-05-23T03:14:38;80742.78;;;8.32;86.22
62680;BME280;68213;40.528;44.712;2023-05-23T03:15:38;80733.81;;;8.35;85.87
62680;BME280;68213;40.528;44.712;2023-05-23T03:16:39;80706.03;;;8.20;85.39
62680;BME280;68213;40.528;44.712;2023-05-23T03:17:39;80707.19;;;8.39;86.18
62680;BME280;68213;40.528;44.712;2023-05-23T03:18:40;80702.69;;;8.30;86.73
62680;BME280;68213;40.528;44.712;2023-05-23T03:19:43;80678.47;;;8.19;87.15
62680;BME280;68213;40.528;44.712;2023-05-23T03:20:44;80685.34;;;8.24;87.66
62680;BME280;68213;40.528;44.712;2023-05-23T03:21:48;80712.13;;;8.45;87.02
62680;BME280;68213;40.528;44.712;2023-05-23T03:22:50;80713.22;;;8.51;86.68
62680;BME280;68213;40.528;44.712;2023-05-23T03:23:50;80722.19;;;8.48;85.80
62680;BME280;68213;40.528;44.712;2023-05-23T03:24:51;80718.31;;;8.49;85.52
62680;BME280;68213;40.528;44.712;2023-05-23T03:25:52;80733.19;;;8.56;85.00
62680;BME280;68213;40.528;44.712;2023-05-23T03:26:52;80739.78;;;8.57;83.66
62680;BME280;68213;40.528;44.712;2023-05-23T03:27:53;80734.00;;;8.59;82.22
62680;BME280;68213;40.528;44.712;2023-05-23T03:28:53;80731.75;;;8.65;81.50
62680;BME280;68213;40.528;44.712;2023-05-23T03:29:55;80728.00;;;8.68;82.71
62680;BME280;68213;40.528;44.712;2023-05-23T03:30:55;80722.91;;;8.70;82.70
62680;BME280;68213;40.528;44.712;2023-05-23T03:31:56;80722.34;;;8.72;82.24
62680;BME280;68213;40.528;44.712;2023-05-23T03:32:57;80719.16;;;8.73;82.64
62680;BME280;68213;40.528;44.712;2023-05-23T03:33:57;80720.28;;;8.70;82.47
62680;BME280;68213;40.528;44.712;2023-05-23T03:34:58;80711.84;;;8.72;83.36
62680;BME280;68213;40.528;44.712;2023-05-23T03:35:59;80715.94;;;8.75;84.18
62680;BME280;68213;40.528;44.712;2023-05-23T03:36:59;80720.75;;;8.79;84.08
62680;BME280;68213;40.528;44.712;2023-05-23T03:38:00;80730.13;;;8.82;83.40
62680;BME280;68213;40.528;44.712;2023-05-23T03:39:01;80724.59;;;8.87;83.04
62680;BME280;68213;40.528;44.712;2023-05-23T03:40:02;80724.81;;;8.92;83.60
62680;BME280;68213;40.528;44.712;2023-05-23T03:41:03;80717.31;;;8.98;82.87
62680;BME280;68213;40.528;44.712;2023-05-23T03:42:04;80718.97;;;9.03;82.18
62680;BME280;68213;40.528;44.712;2023-05-23T03:43:06;80725.69;;;9.06;81.69
62680;BME280;68213;40.528;44.712;2023-05-23T03:44:07;80725.94;;;9.10;81.71
62680;BME280;68213;40.528;44.712;2023-05-23T03:45:08;80726.97;;;9.17;81.66
62680;BME280;68213;40.528;44.712;2023-05-23T03:46:09;80722.56;;;9.19;80.58
62680;BME280;68213;40.528;44.712;2023-05-23T03:47:10;80714.56;;;9.17;80.68
62680;BME280;68213;40.528;44.712;2023-05-23T03:48:10;80721.78;;;9.29;80.94
62680;BME280;68213;40.528;44.712;2023-05-23T03:49:11;80724.75;;;9.35;81.71
62680;BME280;68213;40.528;44.712;2023-05-23T03:50:12;80722.41;;;9.39;80.03
62680;BME280;68213;40.528;44.712;2023-05-23T03:51:13;80719.91;;;9.41;79.05
62680;BME280;68213;40.528;44.712;2023-05-23T03:52:13;80728.13;;;9.47;79.03
62680;BME280;68213;40.528;44.712;2023-05-23T03:53:14;80727.81;;;9.53;77.27
62680;BME280;68213;40.528;44.712;2023-05-23T03:54:15;80736.50;;;9.56;77.92
62680;BME280;68213;40.528;44.712;2023-05-23T03:55:17;80726.34;;;9.62;77.70
62680;BME280;68213;40.528;44.712;2023-05-23T03:56:21;80733.44;;;9.71;77.13
62680;BME280;68213;40.528;44.712;2023-05-23T03:57:22;80735.63;;;9.75;77.97
62680;BME280;68213;40.528;44.712;2023-05-23T03:58:22;80733.34;;;9.81;77.48
62680;BME280;68213;40.528;44.712;2023-05-23T03:59:23;80735.31;;;9.92;77.86
62680;BME280;68213;40.528;44.712;2023-05-23T04:00:24;80734.84;;;9.96;77.67
62680;BME280;68213;40.528;44.712;2023-05-23T04:01:25;80733.84;;;10.01;78.22
62680;BME280;68213;40.528;44.712;2023-05-23T04:02:27;80732.56;;;10.02;78.59
62680;BME280;68213;40.528;44.712;2023-05-23T04:03:29;80719.09;;;9.96;76.17
62680;BME280;68213;40.528;44.712;2023-05-23T04:04:31;80738.19;;;10.08;76.94
62680;BME280;68213;40.528;44.712;2023-05-23T04:05:32;80743.81;;;10.14;77.12
62680;BME280;68213;40.528;44.712;2023-05-23T04:06:33;80736.72;;;10.17;76.55
62680;BME280;68213;40.528;44.712;2023-05-23T04:07:33;80718.44;;;10.07;75.90
62680;BME280;68213;40.528;44.712;2023-05-23T04:08:35;80732.38;;;10.22;77.26
62680;BME280;68213;40.528;44.712;2023-05-23T04:09:36;80745.63;;;10.36;77.53
62680;BME280;68213;40.528;44.712;2023-05-23T04:10:37;80752.63;;;10.43;76.34
62680;BME280;68213;40.528;44.712;2023-05-23T04:11:38;80758.94;;;10.50;77.32
62680;BME280;68213;40.528;44.712;2023-05-23T04:12:38;80742.03;;;10.41;78.49
62680;BME280;68213;40.528;44.712;2023-05-23T04:13:40;80752.75;;;10.57;77.97
62680;BME280;68213;40.528;44.712;2023-05-23T04:14:42;80747.97;;;10.65;78.66
62680;BME280;68213;40.528;44.712;2023-05-23T04:15:42;80745.00;;;10.71;78.27
62680;BME280;68213;40.528;44.712;2023-05-23T04:16:44;80738.03;;;10.75;80.06
62680;BME280;68213;40.528;44.712;2023-05-23T04:17:44;80735.03;;;10.69;79.94
62680;BME280;68213;40.528;44.712;2023-05-23T04:18:45;80734.47;;;10.59;80.36
62680;BME280;68213;40.528;44.712;2023-05-23T04:19:47;80733.09;;;10.58;80.83
62680;BME280;68213;40.528;44.712;2023-05-23T04:20:48;80735.94;;;10.62;80.48
62680;BME280;68213;40.528;44.712;2023-05-23T04:21:48;80733.78;;;10.70;78.88
62680;BME280;68213;40.528;44.712;2023-05-23T04:22:49;80735.16;;;10.71;78.76
62680;BME280;68213;40.528;44.712;2023-05-23T04:23:50;80744.06;;;10.66;77.11
62680;BME280;68213;40.528;44.712;2023-05-23T04:24:51;80746.91;;;10.58;75.88
62680;BME280;68213;40.528;44.712;2023-05-23T04:25:54;80751.03;;;10.73;76.29
62680;BME280;68213;40.528;44.712;2023-05-23T04:26:56;80746.13;;;10.79;77.40
62680;BME280;68213;40.528;44.712;2023-05-23T04:27:59;80744.97;;;10.83;76.96
62680;BME280;68213;40.528;44.712;2023-05-23T04:29:00;80746.44;;;10.86;76.97
62680;BME280;68213;40.528;44.712;2023-05-23T04:30:01;80746.34;;;10.84;77.24
62680;BME280;68213;40.528;44.712;2023-05-23T04:31:01;80741.44;;;10.90;76.46
62680;BME280;68213;40.528;44.712;2023-05-23T04:32:02;80739.25;;;10.98;76.30
62680;BME280;68213;40.528;44.712;2023-05-23T04:33:03;80743.59;;;11.05;77.12
62680;BME280;68213;40.528;44.712;2023-05-23T04:34:04;80744.94;;;11.06;78.70
62680;BME280;68213;40.528;44.712;2023-05-23T04:35:05;80742.53;;;11.10;77.62
62680;BME280;68213;40.528;44.712;2023-05-23T04:36:06;80719.00;;;11.01;77.32
62680;BME280;68213;40.528;44.712;2023-05-23T04:37:09;80736.66;;;11.24;75.57
62680;BME280;68213;40.528;44.712;2023-05-23T04:38:10;80734.94;;;11.29;75.16
62680;BME280;68213;40.528;44.712;2023-05-23T04:39:12;80736.44;;;11.32;73.57
62680;BME280;68213;40.528;44.712;2023-05-23T04:40:13;80737.31;;;11.36;74.21
62680;BME280;68213;40.528;44.712;2023-05-23T04:41:15;80732.06;;;11.36;76.59
62680;BME280;68213;40.528;44.712;2023-05-23T04:42:17;80742.50;;;11.34;76.29
62680;BME280;68213;40.528;44.712;2023-05-23T04:43:23;80724.66;;;11.21;74.85
62680;BME280;68213;40.528;44.712;2023-05-23T04:44:25;80738.69;;;11.37;75.10
62680;BME280;68213;40.528;44.712;2023-05-23T04:45:29;80743.47;;;11.41;74.86
62680;BME280;68213;40.528;44.712;2023-05-23T04:46:30;80737.75;;;11.45;77.68
62680;BME280;68213;40.528;44.712;2023-05-23T04:47:31;80733.53;;;11.39;76.83
62680;BME280;68213;40.528;44.712;2023-05-23T04:48:34;80740.28;;;11.42;74.63
62680;BME280;68213;40.528;44.712;2023-05-23T04:49:36;80736.06;;;11.37;74.44
62680;BME280;68213;40.528;44.712;2023-05-23T04:50:40;80750.72;;;11.40;74.86
62680;BME280;68213;40.528;44.712;2023-05-23T04:51:42;80746.44;;;11.47;74.92
62680;BME280;68213;40.528;44.712;2023-05-23T04:52:43;80751.50;;;11.43;74.53
62680;BME280;68213;40.528;44.712;2023-05-23T04:53:43;80754.69;;;11.53;73.87
62680;BME280;68213;40.528;44.712;2023-05-23T04:54:45;80753.19;;;11.50;74.54
62680;BME280;68213;40.528;44.712;2023-05-23T04:55:45;80745.56;;;11.42;74.25
62680;BME280;68213;40.528;44.712;2023-05-23T04:56:46;80753.34;;;11.40;74.23
62680;BME280;68213;40.528;44.712;2023-05-23T04:57:47;80757.19;;;11.51;75.24
62680;BME280;68213;40.528;44.712;2023-05-23T04:58:47;80753.03;;;11.60;74.85
62680;BME280;68213;40.528;44.712;2023-05-23T04:59:48;80761.38;;;11.68;74.00
62680;BME280;68213;40.528;44.712;2023-05-23T05:00:49;80756.09;;;11.68;75.11
62680;BME280;68213;40.528;44.712;2023-05-23T05:01:49;80761.25;;;11.66;72.91
62680;BME280;68213;40.528;44.712;2023-05-23T05:02:50;80762.94;;;11.73;72.09
62680;BME280;68213;40.528;44.712;2023-05-23T05:03:51;80756.75;;;11.81;70.21
62680;BME280;68213;40.528;44.712;2023-05-23T05:04:52;80758.91;;;11.84;70.21
62680;BME280;68213;40.528;44.712;2023-05-23T05:05:55;80764.28;;;11.86;70.62
62680;BME280;68213;40.528;44.712;2023-05-23T05:06:56;80762.34;;;11.87;70.72
62680;BME280;68213;40.528;44.712;2023-05-23T05:07:57;80767.63;;;11.87;70.58
62680;BME280;68213;40.528;44.712;2023-05-23T05:08:58;80771.50;;;11.86;69.55
62680;BME280;68213;40.528;44.712;2023-05-23T05:09:58;80762.56;;;11.91;70.57
62680;BME280;68213;40.528;44.712;2023-05-23T05:10:59;80764.84;;;11.97;70.45
62680;BME280;68213;40.528;44.712;2023-05-23T05:12:00;80754.50;;;12.01;71.27
62680;BME280;68213;40.528;44.712;2023-05-23T05:13:00;80764.69;;;12.06;70.36
62680;BME280;68213;40.528;44.712;2023-05-23T05:14:01;80762.72;;;12.07;70.45
62680;BME280;68213;40.528;44.712;2023-05-23T05:15:02;80762.84;;;12.09;68.02
62680;BME280;68213;40.528;44.712;2023-05-23T05:16:05;80763.13;;;12.01;69.81
62680;BME280;68213;40.528;44.712;2023-05-23T05:17:06;80762.25;;;12.11;70.32
62680;BME280;68213;40.528;44.712;2023-05-23T05:18:06;80764.03;;;12.20;71.12
62680;BME280;68213;40.528;44.712;2023-05-23T05:19:07;80774.22;;;12.26;67.55
62680;BME280;68213;40.528;44.712;2023-05-23T05:20:11;80721.97;;;11.96;69.02
62680;BME280;68213;40.528;44.712;2023-05-23T05:21:12;80759.59;;;12.36;68.87
62680;BME280;68213;40.528;44.712;2023-05-23T05:22:13;80766.03;;;12.33;70.13
62680;BME280;68213;40.528;44.712;2023-05-23T05:23:14;80759.88;;;12.29;69.37
62680;BME280;68213;40.528;44.712;2023-05-23T05:24:15;80760.19;;;12.35;68.14
62680;BME280;68213;40.528;44.712;2023-05-23T05:25:15;80757.28;;;12.43;69.44
62680;BME280;68213;40.528;44.712;2023-05-23T05:26:16;80761.59;;;12.50;67.96
62680;BME280;68213;40.528;44.712;2023-05-23T05:27:17;80753.97;;;12.56;66.91
62680;BME280;68213;40.528;44.712;2023-05-23T05:28:19;80762.00;;;12.58;67.30
62680;BME280;68213;40.528;44.712;2023-05-23T05:29:21;80760.50;;;12.55;67.74
62680;BME280;68213;40.528;44.712;2023-05-23T05:30:21;80763.75;;;12.53;67.79
62680;BME280;68213;40.528;44.712;2023-05-23T05:31:22;80765.63;;;12.65;67.22